Time;durP1;ratioP1;P1;durP2;ratioP2;P2;SDS_P1;SDS_P2;PMS_P1;PMS_P2;Temp;Humidity;BMP_temperature;BMP_pressure;BME280_temperature;BME280_humidity;BME280_pressure;Samples;Min_cycle;Max_cycle;Signal;HPM_P1;HPM_P2
2021/03/04 00:02:15;;;;;;;0.80;0.70;;;5.90;99.90;;;6.02;100.00;46342.50;5035629;28;20202;-71
2021/03/04 00:04:43;;;;;;;0.80;0.70;;;5.90;99.90;;;6.02;100.00;41299.81;5037196;28;20214;-72
2021/03/04 00:07:10;;;;;;;0.80;0.70;;;5.90;99.90;;;5.95;100.00;35025.94;5050035;28;20215;-71
2021/03/04 00:09:37;;;;;;;0.70;0.60;;;5.90;99.90;;;5.93;100.00;28886.56;5037214;28;20186;-71
2021/03/04 00:12:04;;;;;;;0.70;0.60;;;5.80;99.90;;;5.97;100.00;25586.94;5035068;28;20202;-72
2021/03/04 00:14:31;;;;;;;0.90;0.82;;;5.80;99.90;;;6.01;100.00;19135.09;5034330;28;20219;-72
2021/03/04 00:16:59;;;;;;;0.70;0.60;;;5.80;99.90;;;6.09;100.00;13205.84;5046625;28;20280;-72
2021/03/04 00:19:26;;;;;;;0.70;0.63;;;5.90;99.90;;;6.31;100.00;7401.16;5057045;28;20213;-72
2021/03/04 00:21:53;;;;;;;1.33;1.23;;;5.90;99.90;;;6.29;100.00;2352.06;5040703;28;20245;-72
2021/03/04 00:24:20;;;;;;;0.70;0.60;;;6.00;99.90;;;6.35;100.00;-697.28;5042280;28;20247;-71
2021/03/04 00:26:47;;;;;;;0.70;0.60;;;6.00;99.90;;;6.26;100.00;-3866.91;5043442;28;20582;-72
2021/03/04 00:29:14;;;;;;;0.70;0.50;;;6.00;99.90;;;6.17;100.00;-7077.53;5041972;28;20195;-72
2021/03/04 00:31:41;;;;;;;0.70;0.60;;;5.90;99.90;;;6.06;100.00;-10797.59;5054807;28;20196;-72
2021/03/04 00:34:10;;;;;;;0.70;0.60;;;5.90;99.90;;;6.02;100.00;-13820.81;5049163;28;20276;-71
2021/03/04 00:36:36;;;;;;;0.70;0.60;;;5.80;99.90;;;6.04;100.00;-16339.19;5035044;28;20186;-72
2021/03/04 00:39:07;;;;;;;0.70;0.60;;;5.80;99.90;;;6.03;100.00;-19290.34;5034957;28;20236;-70
2021/03/04 00:41:34;;;;;;;0.70;0.60;;;5.80;99.90;;;6.11;100.00;-20848.53;5040362;28;20190;-71
2021/03/04 00:44:02;;;;;;;0.70;0.60;;;5.80;99.90;;;5.98;100.00;-20844.91;5039451;28;20216;-72
2021/03/04 00:46:29;;;;;;;0.70;0.60;;;5.80;99.90;;;5.86;100.00;-20841.56;5034567;28;20210;-71
2021/03/04 00:48:56;;;;;;;0.70;0.60;;;5.70;99.90;;;5.83;100.00;-20840.88;5054752;28;20248;-71
2021/03/04 00:51:24;;;;;;;0.70;0.60;;;5.60;99.90;;;5.89;100.00;-20842.41;5040854;28;20281;-72
2021/03/04 00:53:51;;;;;;;0.70;0.60;;;5.60;99.90;;;5.80;100.00;-20840.19;5034808;28;20679;-72
2021/03/04 00:56:18;;;;;;;0.70;0.70;;;5.60;99.90;;;5.73;100.00;-20838.09;5034433;28;20654;-72
2021/03/04 00:58:45;;;;;;;1.35;1.25;;;5.60;99.90;;;5.90;100.00;-20842.69;5035720;28;20191;-72
2021/03/04 01:01:13;;;;;;;2.45;0.93;;;5.60;99.90;;;5.84;100.00;-20841.00;5034549;28;20220;-71
2021/03/04 01:03:40;;;;;;;1.13;0.93;;;5.60;99.90;;;5.86;100.00;-20841.72;5034492;28;20244;-71
2021/03/04 01:06:08;;;;;;;0.70;0.60;;;5.50;99.90;;;5.92;100.00;-20843.38;5040466;28;20526;-72
2021/03/04 01:08:35;;;;;;;0.70;0.60;;;5.60;99.90;;;6.02;100.00;-20846.16;5049905;28;20239;-72
2021/03/04 01:11:03;;;;;;;1.60;0.85;;;5.60;99.90;;;6.17;100.00;-20850.19;5054118;28;20189;-72
2021/03/04 01:13:30;;;;;;;1.23;1.13;;;5.70;99.90;;;6.21;100.00;-20851.31;5043401;28;20604;-72
2021/03/04 01:15:57;;;;;;;0.70;0.60;;;5.80;99.90;;;6.19;100.00;-20850.75;5034137;28;20214;-70
2021/03/04 01:18:31;;;;;;;0.80;0.70;;;5.80;99.90;;;6.20;100.00;-20850.91;5049631;28;20488;-72
2021/03/04 01:20:59;;;;;;;0.77;0.60;;;5.80;99.90;;;6.32;100.00;-20854.09;5046165;28;20205;-72
2021/03/04 01:23:26;;;;;;;0.70;0.60;;;5.90;99.90;;;6.47;100.00;-20858.41;5051090;28;20593;-72
2021/03/04 01:25:54;;;;;;;0.70;0.60;;;6.00;99.90;;;6.53;100.00;-20859.94;5054035;28;20956;-72
2021/03/04 01:28:22;;;;;;;0.70;0.60;;;6.10;99.90;;;6.63;100.00;-20862.72;5053216;28;20196;-72
2021/03/04 01:30:49;;;;;;;0.70;0.60;;;6.10;99.90;;;6.73;100.00;-20865.34;5053801;28;20263;-72
2021/03/04 01:33:18;;;;;;;0.70;0.70;;;6.20;99.90;;;6.94;100.00;-20871.06;5041266;28;20466;-72
2021/03/04 01:35:46;;;;;;;0.70;0.60;;;6.40;99.90;;;7.05;100.00;-20874.09;5045976;28;20475;-72
2021/03/04 01:38:15;;;;;;;0.70;0.70;;;6.50;99.90;;;7.12;100.00;-20876.06;5053759;28;20428;-71
2021/03/04 01:40:42;;;;;;;0.70;0.60;;;6.60;99.90;;;7.14;100.00;-20876.47;5052449;28;20430;-71
2021/03/04 01:43:10;;;;;;;3.67;0.90;;;6.60;99.90;;;7.17;100.00;-20877.28;5050192;28;20521;-71
2021/03/04 01:45:36;;;;;;;0.70;0.60;;;6.70;99.90;;;7.13;100.00;-20876.31;5053937;28;20439;-71
2021/03/04 01:48:05;;;;;;;0.70;0.60;;;6.70;99.90;;;7.13;100.00;-20876.31;5041267;28;20499;-71
2021/03/04 01:50:33;;;;;;;0.70;0.60;;;6.70;99.90;;;7.11;100.00;-20875.63;5051960;28;20447;-70
2021/03/04 01:53:00;;;;;;;0.70;0.60;;;6.60;99.90;;;7.19;100.00;-20878.00;5052012;28;20468;-71
2021/03/04 01:55:28;;;;;;;0.70;0.60;;;6.60;99.90;;;7.24;100.00;-20879.38;5067654;28;20871;-71
2021/03/04 01:57:57;;;;;;;0.70;0.60;;;6.80;99.90;;;7.24;100.00;-20879.38;5050250;28;20428;-71
2021/03/04 02:00:28;;;;;;;0.70;0.60;;;6.70;99.90;;;7.33;100.00;-20881.59;5052193;28;20944;-71
2021/03/04 02:02:56;;;;;;;0.70;0.60;;;6.90;99.90;;;7.37;100.00;-20882.84;5052133;28;20669;-72
2021/03/04 02:05:24;;;;;;;19.50;1.77;;;7.00;99.90;;;7.47;100.00;-20885.50;5043605;28;20513;-71
2021/03/04 02:08:06;;;;;;;1.27;1.17;;;7.00;99.90;;;7.52;100.00;-20886.75;5032354;28;20515;-71
2021/03/04 02:10:43;;;;;;;0.70;0.60;;;7.00;99.90;;;7.49;100.00;-20886.03;5035700;28;20440;-71
2021/03/04 02:13:22;;;;;;;0.70;0.60;;;7.00;99.90;;;7.51;100.00;-20886.59;5052477;28;20499;-70
2021/03/04 02:15:59;;;;;;;0.70;0.60;;;7.10;99.90;;;7.57;100.00;-20888.13;5032313;28;20773;-69
2021/03/04 02:18:32;;;;;;;0.80;0.80;;;7.10;99.90;;;7.53;100.00;-20887.16;5048683;28;20499;-71
2021/03/04 02:21:37;;;;;;;1.00;0.73;;;7.10;99.90;;;7.45;100.00;-20884.94;5052693;28;20519;-71
2021/03/04 02:24:35;;;;;;;0.70;0.60;;;7.00;99.90;;;7.37;100.00;-20882.84;5042123;28;20467;-72
2021/03/04 02:27:08;;;;;;;0.70;0.60;;;6.90;99.90;;;7.41;100.00;-20883.81;5033513;28;20464;-71
2021/03/04 02:29:45;;;;;;;0.80;0.80;;;6.90;99.90;;;7.30;100.00;-20880.78;5032117;28;20443;-71
2021/03/04 02:32:15;;;;;;;0.70;0.50;;;6.90;99.90;;;7.23;100.00;-20879.09;5033143;28;20515;-71
2021/03/04 02:34:48;;;;;;;0.80;0.60;;;6.90;99.90;;;7.08;100.00;-20874.94;5037130;28;20462;-71
2021/03/04 02:37:19;;;;;;;0.70;0.60;;;6.70;99.90;;;6.93;100.00;-20870.91;5033425;28;20465;-71
2021/03/04 02:39:51;;;;;;;0.80;0.70;;;6.60;99.90;;;6.83;100.00;-20868.13;5053992;28;20435;-71
2021/03/04 02:42:22;;;;;;;0.70;0.60;;;6.50;99.90;;;6.74;100.00;-20865.63;5055529;28;20433;-70
2021/03/04 02:44:55;;;;;;;0.70;0.57;;;6.40;99.90;;;6.72;100.00;-20865.22;5060775;28;20462;-71
2021/03/04 02:47:23;;;;;;;0.70;0.60;;;6.30;99.90;;;6.74;100.00;-20865.78;5063780;28;20538;-71
2021/03/04 02:49:51;;;;;;;1.03;0.93;;;6.30;99.90;;;6.74;100.00;-20865.78;5046684;28;20503;-71
2021/03/04 02:52:20;;;;;;;0.70;0.60;;;6.40;99.90;;;6.83;100.00;-20868.00;5036984;28;20413;-71
2021/03/04 02:54:49;;;;;;;0.70;0.60;;;6.40;99.90;;;6.84;100.00;-20868.28;5019602;28;20530;-71
2021/03/04 02:57:18;;;;;;;1.53;1.33;;;6.40;99.90;;;6.90;100.00;-20869.94;5035992;28;21008;-72
2021/03/04 02:59:48;;;;;;;0.80;0.70;;;6.50;99.90;;;6.94;100.00;-20871.06;5036968;28;20496;-72
2021/03/04 03:02:17;;;;;;;0.70;0.50;;;6.50;99.90;;;6.91;100.00;-20870.34;5036588;28;20423;-72
2021/03/04 03:04:46;;;;;;;0.70;0.60;;;6.50;99.90;;;6.82;100.00;-20867.72;5039530;28;20454;-71
2021/03/04 03:07:14;;;;;;;2.00;1.13;;;6.50;99.90;;;6.75;100.00;-20866.03;5055576;28;20431;-72
2021/03/04 03:09:44;;;;;;;1.10;1.00;;;6.40;99.90;;;6.70;100.00;-20864.66;5055421;28;20482;-72
2021/03/04 03:12:13;;;;;;;0.90;0.90;;;6.30;99.90;;;6.69;100.00;-20864.25;5045716;28;20437;-72
2021/03/04 03:14:41;;;;;;;1.10;1.00;;;6.30;99.90;;;6.68;100.00;-20864.09;5036610;28;20435;-71
2021/03/04 03:17:09;;;;;;;0.70;0.60;;;6.20;99.90;;;6.69;100.00;-20864.25;5042839;28;20432;-71
2021/03/04 03:19:53;;;;;;;1.10;0.90;;;6.20;99.90;;;6.76;100.00;-20866.19;5046309;28;20456;-72
2021/03/04 03:22:21;;;;;;;0.70;0.70;;;6.20;99.90;;;6.88;100.00;-20869.53;5037198;28;20443;-72
2021/03/04 03:24:48;;;;;;;3.03;1.33;;;6.40;99.90;;;6.96;100.00;-20871.75;5036407;28;20502;-72
2021/03/04 03:27:15;;;;;;;0.70;0.57;;;6.60;99.90;;;7.00;100.00;-20872.72;5038644;28;20428;-72
2021/03/04 03:29:43;;;;;;;1.03;0.97;;;6.60;99.90;;;6.99;100.00;-20872.56;5056082;28;20446;-72
2021/03/04 03:32:12;;;;;;;0.70;0.70;;;6.60;99.90;;;6.90;100.00;-20870.06;5056054;28;20470;-72
2021/03/04 03:34:41;;;;;;;0.97;0.90;;;6.40;99.90;;;6.87;100.00;-20869.25;5053229;28;20499;-72
2021/03/04 03:37:08;;;;;;;0.70;0.50;;;6.40;99.90;;;6.89;100.00;-20869.66;5045191;28;20416;-72
2021/03/04 03:39:35;;;;;;;0.70;0.60;;;6.50;99.90;;;6.92;100.00;-20870.50;5071621;28;20432;-71
2021/03/04 03:42:04;;;;;;;0.70;0.60;;;6.50;99.90;;;6.90;100.00;-20870.06;5071338;28;20415;-72
2021/03/04 03:44:33;;;;;;;0.70;0.60;;;6.40;99.90;;;6.89;100.00;-20869.81;5054081;28;20485;-72
2021/03/04 03:47:03;;;;;;;0.70;0.60;;;6.40;99.90;;;6.87;100.00;-20869.09;5048179;28;20480;-72
2021/03/04 03:49:32;;;;;;;0.70;0.50;;;6.30;99.90;;;6.74;100.00;-20865.78;5038033;28;20457;-71
2021/03/04 03:52:00;;;;;;;0.70;0.50;;;6.20;99.90;;;6.67;100.00;-20863.69;5055219;28;20437;-72
2021/03/04 03:54:28;;;;;;;1.27;1.17;;;6.10;99.90;;;6.63;100.00;-20862.72;5055845;28;20897;-72
2021/03/04 03:56:56;;;;;;;1.10;1.08;;;6.00;99.90;;;6.61;100.00;-20862.16;5055648;28;20931;-72
2021/03/04 03:59:25;;;;;;;0.70;0.50;;;6.00;99.90;;;6.74;100.00;-20865.78;5046425;28;20266;-72
2021/03/04 04:01:53;;;;;;;0.70;0.60;;;6.20;99.90;;;6.85;100.00;-20868.69;5038099;28;20438;-72
2021/03/04 04:04:20;;;;;;;1.40;1.30;;;6.30;99.90;;;6.91;100.00;-20870.22;5049168;28;20472;-72
2021/03/04 04:06:50;;;;;;;0.70;0.60;;;6.30;99.90;;;6.86;100.00;-20868.97;5049383;28;20258;-71
2021/03/04 04:09:17;;;;;;;0.70;0.60;;;6.30;99.90;;;6.92;100.00;-20870.50;5041950;28;20805;-71
2021/03/04 04:11:44;;;;;;;1.13;1.00;;;6.30;99.90;;;7.00;100.00;-20872.72;5035641;28;20185;-71
2021/03/04 04:14:10;;;;;;;0.80;0.70;;;6.40;99.90;;;7.04;100.00;-20873.69;5046526;28;20225;-72
2021/03/04 04:16:38;;;;;;;0.80;0.70;;;6.40;99.90;;;7.09;100.00;-20875.22;5041102;28;20435;-72
2021/03/04 04:19:06;;;;;;;0.70;0.60;;;6.40;99.90;;;7.13;100.00;-20876.19;5047380;28;20459;-72
2021/03/04 04:21:33;;;;;;;0.70;0.63;;;6.50;99.90;;;7.25;100.00;-20879.53;5065070;28;21017;-72
2021/03/04 04:24:01;;;;;;;0.70;0.53;;;6.60;99.90;;;7.26;100.00;-20879.94;5054179;28;20471;-72
2021/03/04 04:26:27;;;;;;;0.90;0.73;;;6.60;99.90;;;7.17;100.00;-20877.28;5052062;28;20452;-72
2021/03/04 04:28:54;;;;;;;0.70;0.67;;;6.50;99.90;;;7.15;100.00;-20876.75;5053814;28;20776;-72
2021/03/04 04:31:21;;;;;;;0.70;0.70;;;6.50;99.90;;;7.08;100.00;-20874.81;5064135;28;20442;-72
2021/03/04 04:33:49;;;;;;;0.70;0.60;;;6.40;99.90;;;7.06;100.00;-20874.38;5056434;28;20470;-71
2021/03/04 04:36:16;;;;;;;0.70;0.50;;;6.40;99.90;;;7.11;100.00;-20875.63;5045474;28;20434;-72
2021/03/04 04:38:42;;;;;;;0.70;0.60;;;6.50;99.90;;;7.07;100.00;-20874.66;5045552;28;20427;-72
2021/03/04 04:41:10;;;;;;;0.70;0.60;;;6.50;99.90;;;7.15;100.00;-20876.88;5035044;28;20432;-71
2021/03/04 04:43:37;;;;;;;0.70;0.60;;;6.50;99.90;;;7.17;100.00;-20877.44;5034706;28;20547;-72
2021/03/04 04:46:04;;;;;;;0.70;0.50;;;6.50;99.90;;;7.30;100.00;-20880.78;5049547;28;20854;-72
2021/03/04 04:48:31;;;;;;;0.70;0.60;;;6.60;99.90;;;7.38;100.00;-20883.00;5063386;28;20467;-72
2021/03/04 04:51:10;;;;;;;0.70;0.60;;;6.70;99.90;;;7.39;100.00;-20883.28;5063332;28;20438;-72
2021/03/04 04:53:38;;;;;;;0.70;0.60;;;6.70;99.90;;;7.38;100.00;-20883.13;5054701;28;20519;-71
2021/03/04 04:56:06;;;;;;;1.90;1.00;;;6.60;99.90;;;7.37;100.00;-20882.72;5064324;28;20466;-72
2021/03/04 04:58:33;;;;;;;0.70;0.50;;;6.60;99.90;;;7.44;100.00;-20884.66;5063578;28;20443;-72
2021/03/04 05:01:01;;;;;;;0.70;0.60;;;6.70;99.90;;;7.46;100.00;-20885.22;5057097;28;20445;-72
2021/03/04 05:03:28;;;;;;;1.00;0.90;;;6.70;99.90;;;7.36;100.00;-20882.56;5059332;28;21039;-71
2021/03/04 05:05:55;;;;;;;0.70;0.60;;;6.60;99.90;;;7.39;100.00;-20883.41;5058196;28;21051;-72
2021/03/04 05:08:22;;;;;;;0.70;0.70;;;6.60;99.90;;;7.50;100.00;-20886.31;5057159;28;20487;-71
2021/03/04 05:10:49;;;;;;;0.70;0.60;;;6.70;99.90;;;7.53;100.00;-20887.16;5054357;28;20452;-72
2021/03/04 05:13:16;;;;;;;0.70;0.60;;;6.80;99.90;;;7.55;100.00;-20887.56;5058918;28;20448;-73
2021/03/04 05:15:44;;;;;;;0.70;0.50;;;6.80;99.90;;;7.55;100.00;-20887.72;5054369;28;20424;-72
2021/03/04 05:18:12;;;;;;;0.90;0.80;;;6.80;99.90;;;7.46;100.00;-20885.22;5069351;28;20460;-72
2021/03/04 05:20:39;;;;;;;0.67;0.50;;;6.80;99.90;;;7.48;100.00;-20885.91;5074062;28;20431;-71
2021/03/04 05:23:06;;;;;;;0.70;0.60;;;6.70;99.90;;;7.52;100.00;-20886.88;5074088;28;20498;-72
2021/03/04 05:25:33;;;;;;;0.70;0.60;;;6.80;99.90;;;7.62;100.00;-20889.66;5073725;28;21125;-72
2021/03/04 05:28:01;;;;;;;1.03;0.93;;;6.80;99.90;;;7.68;100.00;-20891.31;5073790;28;20434;-72
2021/03/04 05:30:28;;;;;;;0.70;0.50;;;6.90;99.90;;;7.71;100.00;-20892.16;5069605;28;20440;-71
2021/03/04 05:32:55;;;;;;;0.70;0.60;;;6.90;99.90;;;7.78;100.00;-20893.81;5033964;28;20425;-72
2021/03/04 05:35:22;;;;;;;0.70;0.60;;;7.00;99.90;;;7.84;100.00;-20895.47;5034180;28;20807;-73
2021/03/04 05:37:49;;;;;;;0.80;0.70;;;7.00;99.90;;;7.87;100.00;-20896.47;5034986;28;20433;-72
2021/03/04 05:40:17;;;;;;;0.70;0.60;;;7.00;99.90;;;7.88;100.00;-20896.75;5033991;28;20446;-72
2021/03/04 05:42:44;;;;;;;3.60;1.20;;;7.10;99.90;;;7.85;100.00;-20895.91;5047010;28;20920;-71
2021/03/04 05:45:13;;;;;;;0.70;0.60;;;7.00;99.90;;;7.91;100.00;-20897.56;5053852;28;20432;-72
2021/03/04 05:47:45;;;;;;;0.80;0.80;;;7.10;99.90;;;7.92;100.00;-20897.72;5064257;28;20423;-72
2021/03/04 05:50:16;;;;;;;1.10;1.00;;;7.10;99.90;;;8.01;100.00;-20900.06;5073854;28;20411;-72
2021/03/04 05:52:50;;;;;;;0.70;0.60;;;7.20;99.90;;;8.02;100.00;-20900.47;5072730;28;20535;-72
2021/03/04 05:55:18;;;;;;;0.70;0.50;;;7.20;99.90;;;8.04;100.00;-20901.03;5073705;28;20412;-71
2021/03/04 05:57:46;;;;;;;0.70;0.60;;;7.20;99.90;;;8.14;100.00;-20903.81;5073602;28;20435;-71
2021/03/04 06:00:14;;;;;;;0.70;0.60;;;7.30;99.90;;;8.18;100.00;-20904.91;5073647;28;20472;-72
2021/03/04 06:02:43;;;;;;;0.70;0.50;;;7.30;99.90;;;8.11;100.00;-20902.97;5073061;28;20433;-72
2021/03/04 06:05:14;;;;;;;0.70;0.50;;;7.30;99.90;;;7.92;100.00;-20897.84;5073792;28;20788;-72
2021/03/04 06:07:45;;;;;;;0.70;0.50;;;7.20;99.90;;;8.03;100.00;-20900.75;5073579;28;20443;-72
2021/03/04 06:10:14;;;;;;;1.33;1.20;;;7.20;99.90;;;8.11;100.00;-20902.84;5035539;28;20437;-72
2021/03/04 06:12:42;;;;;;;2.43;0.90;;;7.30;99.90;;;8.08;100.00;-20902.16;5038624;28;20451;-73
2021/03/04 06:15:10;;;;;;;0.70;0.60;;;7.30;99.90;;;8.07;100.00;-20901.88;5052596;28;20928;-73
2021/03/04 06:17:37;;;;;;;0.80;0.80;;;7.30;99.90;;;8.13;100.00;-20903.53;5053125;28;20428;-72
2021/03/04 06:20:07;;;;;;;1.07;0.97;;;7.30;99.90;;;8.03;100.00;-20900.75;5053425;28;20432;-72
2021/03/04 06:22:37;;;;;;;0.70;0.60;;;7.30;99.90;;;8.19;100.00;-20905.19;5053305;28;20424;-72
2021/03/04 06:25:09;;;;;;;0.70;0.60;;;7.30;99.90;;;8.24;100.00;-20906.59;5053153;28;20440;-72
2021/03/04 06:27:39;;;;;;;0.70;0.60;;;7.40;99.90;;;8.33;100.00;-20908.81;5051793;28;20444;-71
2021/03/04 06:30:09;;;;;;;0.80;0.73;;;7.40;99.90;;;8.30;100.00;-20907.97;5066416;28;20852;-72
2021/03/04 06:32:37;;;;;;;0.70;0.60;;;7.40;99.90;;;8.43;100.00;-20911.72;5052837;28;20423;-72
2021/03/04 06:35:09;;;;;;;0.70;0.50;;;7.40;99.90;;;8.37;100.00;-20909.91;5052697;28;20474;-72
2021/03/04 06:37:38;;;;;;;0.70;0.50;;;7.40;99.90;;;8.43;100.00;-20911.72;5050982;28;20445;-72
2021/03/04 06:40:17;;;;;;;0.70;0.60;;;7.40;99.90;;;8.30;100.00;-20907.97;5052802;28;20443;-72
2021/03/04 06:42:46;;;;;;;0.70;0.60;;;7.40;99.90;;;8.16;100.00;-20904.38;5052935;28;20435;-73
2021/03/04 06:45:29;;;;;;;0.70;0.60;;;7.40;99.90;;;8.30;100.00;-20908.13;5053513;28;20481;-72
2021/03/04 06:48:08;;;;;;;0.73;0.60;;;7.30;99.90;;;8.35;100.00;-20909.50;5052951;28;20500;-72
2021/03/04 06:50:37;;;;;;;0.70;0.60;;;7.40;99.90;;;8.33;100.00;-20908.81;5052267;28;20427;-72
2021/03/04 06:53:17;;;;;;;0.60;0.50;;;7.40;99.90;;;8.37;100.00;-20909.91;5046742;28;20518;-72
2021/03/04 06:55:53;;;;;;;1.23;1.13;;;7.40;99.90;;;8.52;100.00;-20914.09;5033508;28;20478;-72
2021/03/04 06:58:26;;;;;;;0.70;0.50;;;7.30;99.90;;;8.37;100.00;-20909.91;5033497;28;20917;-72
2021/03/04 07:01:06;;;;;;;0.70;0.60;;;7.30;99.90;;;8.26;100.00;-20906.88;5032384;28;20432;-71
2021/03/04 07:03:39;;;;;;;0.70;0.63;;;7.30;99.90;;;8.07;100.00;-20901.88;5033079;28;20562;-72
2021/03/04 07:06:26;;;;;;;0.70;0.60;;;7.20;99.90;;;8.12;100.00;-20903.25;5037234;28;20455;-72
2021/03/04 07:08:54;;;;;;;0.70;0.50;;;7.10;99.90;;;7.98;100.00;-20899.38;5039555;28;20522;-73
2021/03/04 07:11:24;;;;;;;0.70;0.60;;;7.10;99.90;;;7.94;100.00;-20898.25;5033112;28;20420;-73
2021/03/04 07:13:52;;;;;;;1.73;1.53;;;7.10;99.90;;;7.95;100.00;-20898.53;5032765;28;20528;-72
2021/03/04 07:16:22;;;;;;;2.97;1.33;;;7.00;99.90;;;8.20;100.00;-20905.47;5032507;28;20486;-71
2021/03/04 07:18:53;;;;;;;0.70;0.70;;;7.00;99.90;;;7.91;100.00;-20897.44;5032047;28;20444;-72
2021/03/04 07:21:23;;;;;;;0.70;0.50;;;7.10;99.90;;;7.87;100.00;-20896.47;5045765;28;20429;-73
2021/03/04 07:23:51;;;;;;;0.70;0.60;;;7.10;99.90;;;7.90;100.00;-20897.16;5042905;28;20513;-72
2021/03/04 07:26:19;;;;;;;0.70;0.63;;;7.10;99.90;;;7.93;100.00;-20897.97;5054182;28;20952;-72
2021/03/04 07:28:50;;;;;;;0.70;0.60;;;7.10;99.90;;;8.01;100.00;-20900.19;5056533;28;20436;-72
2021/03/04 07:31:17;;;;;;;0.60;0.50;;;7.00;99.90;;;8.02;100.00;-20900.47;5054909;28;20412;-72
2021/03/04 07:33:48;;;;;;;0.70;0.50;;;7.10;99.90;;;8.00;100.00;-20899.94;5054662;28;20470;-71
2021/03/04 07:36:20;;;;;;;0.67;0.53;;;7.10;99.90;;;8.12;100.00;-20903.25;5056451;28;20409;-72
2021/03/04 07:38:54;;;;;;;0.70;0.60;;;7.20;99.90;;;8.12;100.00;-20903.25;5042689;28;20447;-73
2021/03/04 07:41:23;;;;;;;0.70;0.60;;;7.30;99.90;;;8.10;100.00;-20902.69;5036636;28;20413;-72
2021/03/04 07:43:52;;;;;;;0.70;0.60;;;7.30;99.90;;;8.08;100.00;-20902.16;5039898;28;20513;-72
2021/03/04 07:46:35;;;;;;;0.73;0.70;;;7.30;99.90;;;8.02;100.00;-20900.34;5036046;28;20418;-71
2021/03/04 07:49:05;;;;;;;0.70;0.70;;;7.20;99.90;;;7.99;100.00;-20899.78;5035843;28;20522;-72
2021/03/04 07:51:43;;;;;;;0.60;0.50;;;7.10;99.90;;;8.03;100.00;-20900.75;5036016;28;20467;-73
2021/03/04 07:54:11;;;;;;;0.67;0.53;;;7.00;99.90;;;8.02;100.00;-20900.47;5036196;28;20813;-72
2021/03/04 07:56:39;;;;;;;0.70;0.50;;;7.00;99.90;;;8.05;100.00;-20901.31;5036288;28;20432;-72
2021/03/04 07:59:12;;;;;;;0.70;0.60;;;7.00;99.90;;;8.07;100.00;-20901.88;5035948;28;20852;-72
2021/03/04 08:01:41;;;;;;;3.20;2.40;;;7.00;99.90;;;8.00;100.00;-20899.94;5035657;28;21001;-72
2021/03/04 08:04:20;;;;;;;0.70;0.60;;;6.90;99.90;;;8.17;100.00;-20904.66;5033836;28;20475;-73
2021/03/04 08:06:48;;;;;;;1.53;1.43;;;7.00;99.90;;;8.20;100.00;-20905.47;5036008;28;20421;-73
2021/03/04 08:09:30;;;;;;;0.70;0.50;;;7.00;99.90;;;8.24;100.00;-20906.59;5037148;28;20472;-73
2021/03/04 08:12:09;;;;;;;1.37;1.07;;;7.00;99.90;;;8.23;100.00;-20906.31;5035655;28;20771;-73
2021/03/04 08:14:39;;;;;;;0.70;0.50;;;7.00;99.90;;;8.33;100.00;-20908.94;5035662;28;20445;-73
2021/03/04 08:17:07;;;;;;;1.53;1.43;;;7.10;99.90;;;8.32;100.00;-20908.53;5048153;28;20430;-73
2021/03/04 08:19:36;;;;;;;0.70;0.60;;;7.20;99.90;;;8.52;100.00;-20914.09;5075111;28;20447;-73
2021/03/04 08:22:06;;;;;;;0.67;0.53;;;7.30;99.90;;;8.60;100.00;-20916.28;5075513;28;20423;-73
2021/03/04 08:24:35;;;;;;;0.70;0.50;;;7.20;99.90;;;8.43;100.00;-20911.72;5075198;28;20489;-73
2021/03/04 08:27:05;;;;;;;1.00;0.90;;;7.10;99.90;;;8.41;100.00;-20911.16;5075492;28;20408;-73
2021/03/04 08:29:33;;;;;;;1.00;0.80;;;7.20;99.90;;;8.43;100.00;-20911.72;5059267;28;20413;-73
2021/03/04 08:32:03;;;;;;;1.87;1.77;;;7.10;99.90;;;8.51;100.00;-20913.81;5055343;28;20416;-73
2021/03/04 08:34:38;;;;;;;1.33;1.23;;;7.20;99.90;;;8.50;100.00;-20913.53;5054832;28;20451;-73
2021/03/04 08:37:06;;;;;;;0.67;0.50;;;7.30;99.90;;;8.55;100.00;-20914.78;5053298;28;20424;-73
2021/03/04 08:39:34;;;;;;;0.70;0.63;;;7.40;99.90;;;8.69;100.00;-20918.66;5054826;28;20424;-73
2021/03/04 08:42:06;;;;;;;0.70;0.60;;;7.50;99.90;;;9.26;100.00;-20934.03;5055108;28;20420;-73
2021/03/04 08:44:47;;;;;;;0.70;0.60;;;7.70;99.90;;;9.91;100.00;-20951.78;5055061;28;20451;-73
2021/03/04 08:47:16;;;;;;;0.70;0.60;;;7.80;99.90;;;10.21;100.00;-20959.78;5062678;28;20431;-73
2021/03/04 08:49:54;;;;;;;0.80;0.63;;;8.10;99.90;;;10.34;100.00;-20963.41;5074430;28;20450;-73
2021/03/04 08:52:23;;;;;;;0.70;0.60;;;8.20;99.90;;;9.97;100.00;-20953.28;5074909;28;20845;-73
2021/03/04 08:54:52;;;;;;;0.70;0.70;;;8.10;99.90;;;9.98;100.00;-20953.72;5075109;28;20423;-74
2021/03/04 08:57:24;;;;;;;0.70;0.60;;;8.00;99.90;;;10.27;100.00;-20961.59;5074828;28;20411;-74
2021/03/04 09:00:11;;;;;;;0.70;0.60;;;7.90;99.90;;;10.06;100.00;-20955.91;5074746;28;20933;-74
2021/03/04 09:02:44;;;;;;;0.70;0.60;;;8.00;99.90;;;9.94;100.00;-20952.59;5074795;28;20427;-73
2021/03/04 09:05:19;;;;;;;0.83;0.83;;;8.10;99.90;;;10.19;100.00;-20959.25;5050860;28;20897;-73
2021/03/04 09:07:46;;;;;;;0.70;0.63;;;8.00;99.90;;;10.21;100.00;-20959.94;5047180;28;20933;-73
2021/03/04 09:10:14;;;;;;;0.70;0.60;;;8.00;99.90;;;9.84;100.00;-20949.97;5034967;28;20951;-73
2021/03/04 09:12:45;;;;;;;1.77;1.67;;;8.00;99.90;;;9.75;100.00;-20947.47;5034643;28;20430;-73
2021/03/04 09:15:15;;;;;;;0.70;0.53;;;8.00;99.90;;;9.93;100.00;-20952.31;5034648;28;20415;-73
2021/03/04 09:17:44;;;;;;;0.70;0.60;;;8.10;99.90;;;9.80;100.00;-20948.84;5045740;28;20454;-74
2021/03/04 09:20:16;;;;;;;0.70;0.50;;;8.10;99.90;;;9.75;100.00;-20947.34;5054119;28;20473;-73
2021/03/04 09:22:44;;;;;;;0.70;0.60;;;8.30;99.90;;;10.16;100.00;-20958.53;5054403;28;20414;-73
2021/03/04 09:25:15;;;;;;;0.70;0.60;;;8.40;99.90;;;10.06;100.00;-20955.91;5054128;28;20532;-73
2021/03/04 09:27:44;;;;;;;0.70;0.60;;;8.50;99.90;;;10.23;100.00;-20960.34;5054387;28;20424;-73
2021/03/04 09:30:23;;;;;;;0.90;0.80;;;8.60;99.90;;;10.38;100.00;-20964.66;5054123;28;20423;-72
2021/03/04 09:32:50;;;;;;;1.63;0.90;;;8.50;99.90;;;10.56;100.00;-20969.47;5052917;28;20427;-73
2021/03/04 09:35:18;;;;;;;0.70;0.70;;;8.50;99.90;;;10.60;100.00;-20970.59;5053970;28;20419;-73
2021/03/04 09:37:45;;;;;;;0.70;0.60;;;8.40;99.90;;;10.28;100.00;-20961.88;5053347;28;20478;-73
2021/03/04 09:40:27;;;;;;;0.70;0.60;;;8.50;99.90;;;10.43;100.00;-20965.88;5051021;28;20534;-72
2021/03/04 09:42:55;;;;;;;0.70;0.70;;;8.60;99.90;;;10.32;100.00;-20962.84;5053704;28;20777;-73
2021/03/04 09:45:23;;;;;;;0.80;0.80;;;8.90;99.90;;;10.64;100.00;-20971.56;5041736;28;20525;-74
2021/03/04 09:47:51;;;;;;;0.70;0.60;;;9.30;99.90;;;10.81;100.00;-20976.25;5053627;28;20443;-73
2021/03/04 09:50:25;;;;;;;1.13;1.03;;;9.40;99.90;;;11.92;100.00;-21006.25;5052832;28;20416;-73
2021/03/04 09:53:03;;;;;;;0.70;0.60;;;9.10;99.90;;;11.61;100.00;-20997.97;5053244;28;20428;-73
2021/03/04 09:55:37;;;;;;;0.80;0.77;;;9.10;99.90;;;11.94;100.00;-21006.81;5053719;28;20495;-74
2021/03/04 09:58:14;;;;;;;0.70;0.60;;;9.30;99.90;;;12.02;100.00;-21008.88;5051348;28;20430;-73
2021/03/04 10:00:43;;;;;;;1.00;0.90;;;9.40;99.90;;;11.40;100.00;-20992.16;5037322;28;20433;-73
2021/03/04 10:03:33;;;;;;;0.70;0.63;;;9.60;99.90;;;11.53;100.00;-20995.75;5032184;28;20614;-73
2021/03/04 10:06:03;;;;;;;0.83;0.77;;;9.80;99.90;;;11.70;100.00;-21000.31;5033492;28;20416;-74
2021/03/04 10:08:37;;;;;;;0.80;0.70;;;9.80;99.90;;;11.54;100.00;-20995.88;5034695;28;20436;-74
2021/03/04 10:11:05;;;;;;;0.70;0.60;;;9.70;99.90;;;11.34;100.00;-20990.63;5033414;28;20427;-74
2021/03/04 10:13:34;;;;;;;0.80;0.80;;;9.60;99.90;;;11.27;100.00;-20988.56;5039122;28;20514;-74
2021/03/04 10:16:13;;;;;;;0.70;0.60;;;9.40;99.90;;;11.22;100.00;-20987.19;5033570;28;20421;-74
2021/03/04 10:18:43;;;;;;;0.70;0.70;;;9.30;99.90;;;11.28;100.00;-20988.97;5071259;28;20459;-72
2021/03/04 10:21:12;;;;;;;0.70;0.60;;;9.30;99.90;;;11.20;100.00;-20986.78;5073021;28;20465;-74
2021/03/04 10:23:40;;;;;;;0.70;0.63;;;9.30;99.90;;;11.58;100.00;-20997.13;5073622;28;21089;-73
2021/03/04 10:26:07;;;;;;;0.70;0.60;;;9.10;99.90;;;11.24;100.00;-20987.88;5073524;28;20444;-74
2021/03/04 10:28:35;;;;;;;1.90;1.80;;;9.10;99.90;;;10.88;100.00;-20978.19;5069244;28;20438;-73
2021/03/04 10:31:03;;;;;;;0.77;0.77;;;9.10;99.90;;;10.69;100.00;-20972.81;5033837;28;20433;-74